Terminal Aerodrome Forecast
Issued by NWS

Home | Current Version | Previous Version | Text Only | Print | Product List | Glossary On
Versions: 1 2 3 4 5 6 7 8 9 10 11 12 13 14 15
000
FTUS43 KMQT 241138
TAFSAW
TAF
KSAW 241138Z 2412/2512 VRB03KT 3SM -FZRA BR OVC015
     FM241400 35004KT 4SM -RA BR OVC010
     FM241600 36006KT 5SM BR OVC008
     FM242200 01009KT P6SM OVC010
     FM250000 01009KT 5SM BR OVC010=

USA.gov is the U.S. government's official web portal to all federal, state and local government web resources and services.